Historyczne dane pomiarowe

Dodano dane terminowe – wersja testowa.

Dane z okresu 1951-2019

Wersja bazy: 1.34 [2019-03-16, lista zmian], aktualizacja planowana na 2019-04-15

Dane meteo z obszaru Polski uzyskane na podstawie danych udostępnionych przez Instytut Meteorologii i Gospodarki Wodnej – Państwowy Instytut Badawczy.

 

Wybierz Datę:    

       

TemperaturaWilgotnośćWiatrCiśnienieOpadyŚniegCzas trwania zjawisk
 Stacja t tx tn tng RH VA  wxwx mslp ppp RRR   cm mm wxwxwxwxwxwxwx
1994-08-14 13.6 16.4 9.4- 89.3- 6.7 10.0---- 33.0------------
1994-08-13 16.5 20.0 14.4- 93.8- 8.0 5.0---- 8.0------------
1994-08-12 18.4 21.6 13.3- 92.3- 2.0 3.0---- 0.0------------
1994-08-11 19.2 25.5 14.9- 76.5- 5.0 6.0---- 0.0------------
1994-08-10 18.3 22.3 9.9- 86.0- 3.3 3.0---- 0.0------------
1994-08-09 19.2 22.4 10.9- 90.5- 4.0 1.3---- 0.0------------
1994-08-08 19.0 24.5 13.9- 94.3- 2.7 2.3---- 0.0------------
1994-08-07 19.4 22.6 16.0- 87.5- 5.0 3.0---- 0.0------------
1994-08-06 21.0 26.1 17.4- 82.0- 5.3 2.0---- 0.0------------
1994-08-05 21.3 27.1 13.9- 78.3- 3.7 2.0---- 0.0------------
1994-08-04 19.4 21.5 13.5- 93.3- 2.3 2.0---- 0.0------------
1994-08-03 17.6 21.5 14.1- 96.3- 5.3 2.0---- 0.0------------
1994-08-02 19.4 24.1 14.0- 93.5- 5.0 3.7---- 0.0------------
1994-08-01 23.7 33.7 15.4- 75.3- 6.0 3.7---- 0.0------------
1994-07-31 22.4 30.4 18.5- 80.3- 6.3 5.3---- 0.0------------
1994-07-30 21.4 25.1 17.2- 95.8- 2.3 3.3---- 0.0------------
1994-07-29 23.5 31.4 18.1- 79.0- 4.3 2.0---- 0.0------------
1994-07-28 20.9 23.8 15.9- 96.3- 1.7 1.7---- 0.0------------
1994-07-27 21.1 28.8 16.4- 80.8- 3.3 2.3---- 0.0------------
1994-07-26 22.3 32.6 16.9- 67.3- 3.3 2.3---- 0.0------------
1994-07-25 21.5 30.0 15.0- 64.0- 1.3 5.0---- 0.0------------
1994-07-24 19.6 28.3 15.2- 84.3- 1.7 2.3---- 0.0------------
1994-07-23 20.0 25.5 14.9- 70.0- 4.3 2.0---- 0.0------------
1994-07-22 19.4 26.3 11.9- 70.8- 3.7 2.7---- 0.0------------
1994-07-21 18.4 23.7 10.5- 88.5- 2.0 2.0---- 0.0------------
1994-07-20 17.2 20.0 8.7- 86.0- 2.3 3.0---- 0.0------------
1994-07-19 17.3 19.0 10.1- 82.3- 2.7 3.3---- 0.0------------
1994-07-18 17.1 20.5 10.9- 82.0- 4.0 6.0---- 0.0------------
1994-07-17 18.4 24.6 16.4- 77.8- 4.7 3.3---- 0.0------------
1994-07-16 18.8 25.1 15.8- 96.5- 6.0 3.0---- 0.0------------
1994-07-15 21.5 29.2 15.4- 88.3- 5.7 2.7---- 20.5------------
1994-07-14 20.6 28.1 17.0- 85.0- 4.3 3.0---- 1.0------------
1994-07-13 23.0 28.7 17.0- 65.8- 4.7 2.3---- 0.0------------
1994-07-12 20.2 25.7 13.1- 75.5- 2.0 4.3---- 0.0------------
1994-07-11 18.1 20.0 10.7- 93.3- 2.3 2.0---- 0.0------------
1994-07-10 16.6 19.7 10.6- 96.0- 2.3 3.0---- 0.0------------
1994-07-09 16.2 19.8 14.1- 96.0- 3.7 3.0---- 0.0------------
1994-07-08 16.7 21.0 11.6- 85.5- 4.7 2.7---- 0.0------------
1994-07-07 14.9 19.0 6.3- 85.3- 4.0 3.0---- 0.0------------
1994-07-06 14.9 16.5 11.3- 90.5- 4.0 3.0---- 0.0------------
1994-07-05 15.3 19.5 10.6- 88.5- 5.3 5.0---- 0.0------------
1994-07-04 18.2 23.7 12.7- 74.0- 1.7 4.0---- 0.0------------
1994-07-03 18.2 23.9 11.4- 69.0- 4.0 3.0---- 0.0------------
1994-07-02 16.1 21.0 6.9- 83.3- 2.7 3.7---- 0.0------------
1994-07-01 15.2 16.6 14.0- 83.3- 4.3 3.3---- 0.0------------
1994-06-30 16.3 20.0 14.9- 91.8- 4.0 6.0---- 0.0------------
1994-06-29 21.7 32.2 13.4- 81.8- 5.3 9.3---- 7.0------------
1994-06-28 17.4 19.7 14.9- 90.5- 4.0 2.0---- 0.0------------
1994-06-27 16.7 19.2 15.7- 89.8- 5.7 2.7---- 0.0------------
1994-06-26 18.3 27.9 14.1- 72.5- 3.3 3.3---- 0.0------------
1994-06-25 16.1 24.4 5.9- 67.3- 2.0 2.7---- 0.0------------
1994-06-24 12.8 14.2 11.2- 87.8- 3.0 9.3---- 0.0------------
1994-06-23 13.1 15.0 11.4- 82.5- 5.0 15.0---- 0.0------------
1994-06-22 15.7 19.0 14.0- 95.8- 5.3 7.3---- 0.0------------
1994-06-21 15.7 19.0 10.1- 82.0- 4.7 1.3---- 2.9------------
1994-06-20 12.8 14.3 11.3- 89.5- 4.3 9.3---- 0.0------------
1994-06-19 13.2 14.4 11.4- 96.3- 8.0 8.7---- 2.9------------
1994-06-18 13.1 16.0 8.2- 81.5- 7.3 4.0---- 3.4------------
1994-06-17 11.3 12.5 7.7- 83.3- 5.0 8.0---- 2.5------------
1994-06-16 11.7 12.7 8.6- 81.8- 5.0 11.3---- 0.2------------
1101.8 ms

 

Źródłem pochodzenia danych jest Instytut Meteorologii i Gospodarki Wodnej – Państwowy Instytut Badawczy. Dane Instytutu Meteorologii i Gospodarki Wodnej – Państwowego Instytutu Badawczego zostały przetworzone.

Dane źródłowe można odnaleźć na stronie https://dane.imgw.pl